Time;durP1;ratioP1;P1;durP2;ratioP2;P2;SDS_P1;SDS_P2;PMS_P1;PMS_P2;Temp;Humidity;BMP_temperature;BMP_pressure;BME280_temperature;BME280_humidity;BME280_pressure;Samples;Min_cycle;Max_cycle;Signal;HPM_P1;HPM_P2
2022/01/16 00:04:07;;;;;;;;;;;;;;;3.91;100.00;99576.59;5054635;28;19931;-73
2022/01/16 00:06:34;;;;;;;;;;;;;;;3.92;100.00;99559.63;5054553;28;19932;-72
2022/01/16 00:09:02;;;;;;;;;;;;;;;4.02;100.00;99561.78;5068666;28;20442;-72
2022/01/16 00:11:29;;;;;;;;;;;;;;;4.11;100.00;99565.09;5054433;28;20364;-72
2022/01/16 00:13:56;;;;;;;;;;;;;;;4.13;100.00;99565.53;5054358;28;20007;-72
2022/01/16 00:16:23;;;;;;;;;;;;;;;4.13;100.00;99567.50;5053290;28;19929;-72
2022/01/16 00:18:52;;;;;;;;;;;;;;;4.12;100.00;99552.88;5054392;28;20372;-72
2022/01/16 00:21:23;;;;;;;;;;;;;;;3.88;100.00;99535.88;5053268;28;20383;-72
2022/01/16 00:23:51;;;;;;;;;;;;;;;3.98;100.00;99519.47;5054087;28;19925;-72
2022/01/16 00:26:19;;;;;;;;;;;;;;;4.03;100.00;99527.44;5054148;28;19931;-72
2022/01/16 00:28:46;;;;;;;;;;;;;;;4.03;100.00;99535.72;5053116;28;20379;-72
2022/01/16 00:31:14;;;;;;;;;;;;;;;4.08;100.00;99527.13;5053051;28;19935;-72
2022/01/16 00:33:44;;;;;;;;;;;;;;;4.22;100.00;99527.38;5053140;28;20006;-73
2022/01/16 00:36:12;;;;;;;;;;;;;;;3.54;100.00;99521.78;5054335;28;19925;-72
2022/01/16 00:38:40;;;;;;;;;;;;;;;3.15;100.00;99528.53;5054002;28;20019;-72
2022/01/16 00:41:07;;;;;;;;;;;;;;;3.58;100.00;99541.22;5053992;28;19982;-73
2022/01/16 00:43:35;;;;;;;;;;;;;;;3.71;100.00;99534.38;5054210;28;20017;-72
2022/01/16 00:46:02;;;;;;;;;;;;;;;3.92;100.00;99545.81;5054077;28;20257;-73
2022/01/16 00:48:29;;;;;;;;;;;;;;;3.90;100.00;99541.81;5054136;28;20404;-72
2022/01/16 00:50:56;;;;;;;;;;;;;;;3.74;100.00;99544.69;5036302;28;19933;-73
2022/01/16 00:53:23;;;;;;;;;;;;;;;3.81;100.00;99549.53;5052260;28;19932;-72
2022/01/16 00:55:51;;;;;;;;;;;;;;;3.69;100.00;99534.75;5052852;28;20027;-72
2022/01/16 00:58:18;;;;;;;;;;;;;;;3.80;100.00;99526.66;5054327;28;20009;-72
2022/01/16 01:00:47;;;;;;;;;;;;;;;3.83;100.00;99531.44;5052780;28;20555;-72
2022/01/16 01:03:15;;;;;;;;;;;;;;;3.85;100.00;99537.38;5053941;28;19936;-72
2022/01/16 01:05:42;;;;;;;;;;;;;;;3.96;100.00;99535.59;5053801;28;19931;-73
2022/01/16 01:08:10;;;;;;;;;;;;;;;4.05;100.00;99532.59;5035905;28;19924;-72
2022/01/16 01:10:39;;;;;;;;;;;;;;;4.01;100.00;99527.03;5053911;28;20494;-72
2022/01/16 01:13:20;;;;;;;;;;;;;;;4.16;100.00;99509.50;5053941;28;19940;-72
2022/01/16 01:15:50;;;;;;;;;;;;;;;4.10;100.00;99519.28;5052686;28;19951;-72
2022/01/16 01:18:18;;;;;;;;;;;;;;;4.08;100.00;99532.66;5053795;28;20386;-72
2022/01/16 01:20:47;;;;;;;;;;;;;;;3.96;100.00;99527.31;5055853;28;19925;-72
2022/01/16 01:23:15;;;;;;;;;;;;;;;4.08;100.00;99521.59;5089546;28;20315;-73
2022/01/16 01:25:42;;;;;;;;;;;;;;;4.03;100.00;99527.44;5058043;28;19924;-72
2022/01/16 01:28:11;;;;;;;;;;;;;;;4.31;100.00;99525.16;5056683;28;19924;-73
2022/01/16 01:30:45;;;;;;;;;;;;;;;4.41;100.00;99529.25;5057868;28;19924;-72
2022/01/16 01:33:13;;;;;;;;;;;;;;;4.82;100.00;99514.44;5090105;28;19925;-73
2022/01/16 01:35:41;;;;;;;;;;;;;;;4.84;100.00;99548.91;5056475;28;19931;-72
2022/01/16 01:38:09;;;;;;;;;;;;;;;5.01;100.00;99523.41;5057557;28;19933;-72
2022/01/16 01:40:37;;;;;;;;;;;;;;;5.13;100.00;99547.31;5057468;28;20067;-72
2022/01/16 01:51:20;;;;;;;;;;;;;;;5.32;100.00;99528.56;5022132;28;19932;-72
2022/01/16 01:53:50;;;;;;;;;;;;;;;5.29;100.00;99434.31;5072359;28;19928;-73
2022/01/16 01:56:18;;;;;;;;;;;;;;;5.23;100.00;99385.94;5055947;28;20025;-72
2022/01/16 01:58:45;;;;;;;;;;;;;;;5.09;100.00;99417.06;5039822;28;19931;-73
2022/01/16 02:01:12;;;;;;;;;;;;;;;5.07;100.00;99447.09;5057192;28;19925;-72
2022/01/16 02:06:14;;;;;;;;;;;;;;;4.98;100.00;99427.22;5056842;28;19924;-73
2022/01/16 02:08:43;;;;;;;;;;;;;;;5.09;100.00;99483.53;5057048;28;20017;-72
2022/01/16 02:11:11;;;;;;;;;;;;;;;5.04;100.00;99491.41;5080861;28;19955;-73
2022/01/16 02:13:48;;;;;;;;;;;;;;;4.90;100.00;99494.78;5075830;28;19924;-73
2022/01/16 02:32:49;;;;;;;;;;;;;;;5.77;100.00;99499.75;5075738;28;20011;-73
2022/01/16 02:35:16;;;;;;;;;;;;;;;5.83;100.00;99514.09;5075105;28;19970;-73
2022/01/16 02:37:43;;;;;;;;;;;;;;;5.94;100.00;99517.78;5075371;28;19928;-73
2022/01/16 02:40:18;;;;;;;;;;;;;;;5.48;100.00;99512.50;5076410;28;19924;-73
2022/01/16 02:42:49;;;;;;;;;;;;;;;5.73;100.00;99512.78;5075400;28;19932;-72
2022/01/16 02:45:28;;;;;;;;;;;;;;;5.81;100.00;99505.31;5058356;28;19924;-72
2022/01/16 02:47:57;;;;;;;;;;;;;;;5.80;100.00;99514.84;5076381;28;19924;-72
2022/01/16 02:50:24;;;;;;;;;;;;;;;5.82;100.00;99516.06;5075911;28;20011;-73
2022/01/16 02:52:52;;;;;;;;;;;;;;;5.91;100.00;99529.66;5058253;28;19928;-73
2022/01/16 02:55:21;;;;;;;;;;;;;;;5.82;100.00;99532.72;5074841;28;20001;-72
2022/01/16 02:57:49;;;;;;;;;;;;;;;5.80;100.00;99523.94;5074908;28;20055;-72
2022/01/16 03:00:18;;;;;;;;;;;;;;;5.68;100.00;99515.88;5076060;28;20023;-72
2022/01/16 03:02:45;;;;;;;;;;;;;;;5.23;100.00;99513.38;5075817;28;19929;-72
2022/01/16 03:05:13;;;;;;;;;;;;;;;5.30;100.00;99500.41;5075611;28;19936;-72
2022/01/16 03:07:41;;;;;;;;;;;;;;;4.85;100.00;99495.09;5074714;28;20019;-73
2022/01/16 03:12:59;;;;;;;;;;;;;;;5.18;100.00;99508.97;5074718;28;19932;-73
2022/01/16 03:15:26;;;;;;;;;;;;;;;5.53;100.00;99498.31;5074513;28;20020;-73
2022/01/16 03:23:18;;;;;;;;;;;;;;;5.55;100.00;99479.34;5074503;28;19924;-72
2022/01/16 03:25:45;;;;;;;;;;;;;;;5.70;100.00;99465.59;5074270;28;19924;-72
2022/01/16 03:28:12;;;;;;;;;;;;;;;5.77;100.00;99451.81;5090991;28;19998;-72
2022/01/16 03:30:39;;;;;;;;;;;;;;;5.66;100.00;99468.34;5075468;28;19931;-73
2022/01/16 03:33:06;;;;;;;;;;;;;;;5.61;100.00;99471.47;5075102;28;19956;-72
2022/01/16 03:35:34;;;;;;;;;;;;;;;5.65;100.00;99468.75;5057456;28;19924;-72
2022/01/16 03:38:01;;;;;;;;;;;;;;;5.51;100.00;99467.41;5075296;28;19978;-73
2022/01/16 03:40:28;;;;;;;;;;;;;;;5.55;100.00;99468.25;5075156;28;20289;-72
2022/01/16 03:43:05;;;;;;;;;;;;;;;5.51;100.00;99459.09;5074994;28;19924;-72
2022/01/16 03:45:32;;;;;;;;;;;;;;;5.66;100.00;99459.22;5074968;28;20017;-72
2022/01/16 03:47:59;;;;;;;;;;;;;;;5.54;100.00;99461.09;5074771;28;20019;-73
2022/01/16 03:50:26;;;;;;;;;;;;;;;5.74;100.00;99458.13;5075111;28;19952;-72
2022/01/16 03:52:53;;;;;;;;;;;;;;;5.74;100.00;99441.50;5074744;28;20062;-73
2022/01/16 03:55:20;;;;;;;;;;;;;;;5.63;100.00;99457.22;5074791;28;20019;-72
2022/01/16 03:57:47;;;;;;;;;;;;;;;5.69;100.00;99455.69;5074847;28;20023;-72
2022/01/16 04:00:15;;;;;;;;;;;;;;;5.68;100.00;99452.13;5074816;28;19924;-72
2022/01/16 04:02:42;;;;;;;;;;;;;;;5.79;100.00;99461.34;5074465;28;19967;-72
2022/01/16 04:05:11;;;;;;;;;;;;;;;5.98;100.00;99457.59;5074572;28;19964;-72
2022/01/16 04:07:38;;;;;;;;;;;;;;;5.99;100.00;99459.16;5074570;28;19963;-72
2022/01/16 04:10:07;;;;;;;;;;;;;;;6.14;100.00;99467.22;5074645;28;19928;-72
2022/01/16 04:12:37;;;;;;;;;;;;;;;6.14;100.00;99463.66;5090182;28;19924;-72
2022/01/16 04:17:39;;;;;;;;;;;;;;;6.13;100.00;99481.50;5073237;28;19928;-73
2022/01/16 04:20:07;;;;;;;;;;;;;;;6.26;100.00;99477.22;5073238;28;19924;-72
2022/01/16 04:22:34;;;;;;;;;;;;;;;6.34;100.00;99481.66;5056550;28;19931;-72
2022/01/16 04:25:03;;;;;;;;;;;;;;;6.43;100.00;99490.44;5073021;28;20066;-72
2022/01/16 04:27:30;;;;;;;;;;;;;;;6.46;100.00;99492.44;5073147;28;20011;-72
2022/01/16 04:29:57;;;;;;;;;;;;;;;6.52;100.00;99499.22;5074082;28;19924;-72
2022/01/16 04:32:24;;;;;;;;;;;;;;;6.41;100.00;99492.78;5074040;28;19928;-72
2022/01/16 04:34:51;;;;;;;;;;;;;;;6.38;100.00;99485.25;5072931;28;20023;-73
2022/01/16 04:37:18;;;;;;;;;;;;;;;6.57;100.00;99502.44;5072888;28;19982;-72
2022/01/16 04:39:51;;;;;;;;;;;;;;;6.39;100.00;99497.94;5089795;28;19989;-72
2022/01/16 04:45:04;;;;;;;;;;;;;;;6.67;100.00;99496.16;5073729;28;19925;-73
2022/01/16 04:47:31;;;;;;;;;;;;;;;6.75;100.00;99500.59;5073914;28;20019;-72
2022/01/16 04:49:58;;;;;;;;;;;;;;;6.87;100.00;99496.69;5074005;28;19960;-72
2022/01/16 04:52:25;;;;;;;;;;;;;;;6.74;100.00;99490.66;5056088;28;20276;-73
2022/01/16 04:54:52;;;;;;;;;;;;;;;6.79;100.00;99486.69;5105904;28;19932;-72
2022/01/16 04:57:20;;;;;;;;;;;;;;;6.76;100.00;99484.69;5072658;28;19931;-73
2022/01/16 04:59:47;;;;;;;;;;;;;;;6.76;100.00;99476.38;5073806;28;19931;-72
2022/01/16 05:02:14;;;;;;;;;;;;;;;6.96;100.00;99480.44;5072814;28;19928;-72
2022/01/16 05:04:41;;;;;;;;;;;;;;;6.83;100.00;99487.53;5072443;28;20509;-72
2022/01/16 05:07:08;;;;;;;;;;;;;;;6.93;100.00;99486.78;5072550;28;20383;-72
2022/01/16 05:09:35;;;;;;;;;;;;;;;6.89;100.00;99499.88;5073297;28;19931;-72
2022/01/16 05:12:10;;;;;;;;;;;;;;;6.78;100.00;99491.47;5056032;28;19928;-72
2022/01/16 05:17:22;;;;;;;;;;;;;;;6.72;100.00;99500.56;5073429;28;20322;-72
2022/01/16 05:19:49;;;;;;;;;;;;;;;6.50;100.00;99515.47;5073198;28;19925;-72
2022/01/16 05:22:16;;;;;;;;;;;;;;;6.69;100.00;99509.66;5055635;28;19931;-72
2022/01/16 05:24:43;;;;;;;;;;;;;;;6.42;100.00;99499.97;5073510;28;19925;-72
2022/01/16 05:27:10;;;;;;;;;;;;;;;6.61;100.00;99508.00;5073598;28;19925;-73
2022/01/16 05:29:37;;;;;;;;;;;;;;;6.52;100.00;99510.34;5073012;28;19931;-73
2022/01/16 05:32:05;;;;;;;;;;;;;;;6.51;100.00;99505.97;5072195;28;19947;-73
2022/01/16 05:34:32;;;;;;;;;;;;;;;6.74;100.00;99492.66;5106066;28;20018;-73
2022/01/16 05:36:59;;;;;;;;;;;;;;;7.01;100.00;99493.97;5073291;28;19928;-72
2022/01/16 05:39:28;;;;;;;;;;;;;;;6.89;100.00;99480.44;5073174;28;19925;-73
2022/01/16 05:41:55;;;;;;;;;;;;;;;6.85;100.00;99485.94;5055656;28;19964;-72
2022/01/16 05:44:22;;;;;;;;;;;;;;;6.74;100.00;99487.88;5088552;28;20006;-72
2022/01/16 05:46:49;;;;;;;;;;;;;;;6.54;100.00;99480.22;5073062;28;20464;-72
2022/01/16 05:49:17;;;;;;;;;;;;;;;6.67;100.00;99492.59;5105799;28;19924;-72
2022/01/16 05:51:44;;;;;;;;;;;;;;;6.75;100.00;99485.91;5073115;28;19924;-72
2022/01/16 05:54:11;;;;;;;;;;;;;;;6.77;100.00;99483.53;5071902;28;19925;-72
2022/01/16 05:56:38;;;;;;;;;;;;;;;6.71;100.00;99490.66;5072029;28;19985;-73
2022/01/16 05:59:05;;;;;;;;;;;;;;;6.65;100.00;99497.75;5071826;28;20023;-73
2022/01/16 06:01:32;;;;;;;;;;;;;;;6.88;100.00;99495.47;5073079;28;19928;-72
2022/01/16 06:03:59;;;;;;;;;;;;;;;7.05;100.00;99505.91;5071856;28;19956;-72
2022/01/16 06:06:26;;;;;;;;;;;;;;;6.92;100.00;99510.97;5074149;28;19928;-72
2022/01/16 06:08:53;;;;;;;;;;;;;;;6.82;100.00;99528.41;5075850;28;19924;-72
2022/01/16 06:11:22;;;;;;;;;;;;;;;6.74;100.00;99523.97;5076535;28;19986;-73
2022/01/16 06:13:49;;;;;;;;;;;;;;;6.86;100.00;99511.75;5075330;28;19928;-73
2022/01/16 06:16:16;;;;;;;;;;;;;;;7.01;100.00;99516.22;5076710;28;20379;-72
2022/01/16 06:18:43;;;;;;;;;;;;;;;6.92;100.00;99527.66;5076467;28;19981;-73
2022/01/16 06:21:10;;;;;;;;;;;;;;;6.86;100.00;99520.09;5074866;28;19924;-73
2022/01/16 06:23:38;;;;;;;;;;;;;;;6.88;100.00;99528.81;5076259;28;20024;-74
2022/01/16 06:26:06;;;;;;;;;;;;;;;6.84;100.00;99537.16;5075796;28;19924;-73
2022/01/16 06:28:33;;;;;;;;;;;;;;;6.68;100.00;99524.75;5074613;28;20018;-73
2022/01/16 06:31:03;;;;;;;;;;;;;;;6.88;100.00;99529.63;5074832;28;19990;-73
2022/01/16 06:33:30;;;;;;;;;;;;;;;6.89;100.00;99535.97;5075266;28;19951;-73
2022/01/16 06:35:57;;;;;;;;;;;;;;;6.90;100.00;99537.56;5074981;28;19970;-72
2022/01/16 06:38:24;;;;;;;;;;;;;;;6.94;100.00;99538.38;5108841;28;19931;-72
2022/01/16 06:40:50;;;;;;;;;;;;;;;6.83;100.00;99545.88;5076137;28;19977;-73
2022/01/16 06:43:18;;;;;;;;;;;;;;;6.74;100.00;99550.97;5076060;28;19928;-73
2022/01/16 06:45:45;;;;;;;;;;;;;;;6.79;100.00;99553.34;5074522;28;19932;-73
2022/01/16 06:48:12;;;;;;;;;;;;;;;6.62;100.00;99543.72;5076280;28;19990;-73
2022/01/16 06:50:40;;;;;;;;;;;;;;;6.82;100.00;99558.13;5076393;28;20011;-73
2022/01/16 06:53:06;;;;;;;;;;;;;;;6.83;100.00;99557.75;5075872;28;19924;-73
2022/01/16 06:55:34;;;;;;;;;;;;;;;6.78;100.00;99549.81;5108296;28;20363;-73
2022/01/16 06:58:01;;;;;;;;;;;;;;;6.75;100.00;99544.22;5075909;28;19924;-72
2022/01/16 07:00:28;;;;;;;;;;;;;;;6.65;100.00;99550.50;5075963;28;19947;-72
2022/01/16 07:02:56;;;;;;;;;;;;;;;6.71;100.00;99546.97;5074870;28;20007;-73
2022/01/16 07:05:23;;;;;;;;;;;;;;;6.64;100.00;99560.81;5041745;28;20283;-72
2022/01/16 07:07:51;;;;;;;;;;;;;;;6.62;100.00;99559.59;5057885;28;20376;-72
2022/01/16 07:10:20;;;;;;;;;;;;;;;6.78;100.00;99546.22;5075680;28;19928;-72
2022/01/16 07:12:47;;;;;;;;;;;;;;;6.70;100.00;99555.69;5074608;28;19925;-72
2022/01/16 07:15:15;;;;;;;;;;;;;;;6.60;100.00;99559.19;5108159;28;20330;-72
2022/01/16 07:17:42;;;;;;;;;;;;;;;6.57;100.00;99563.50;5074042;28;20256;-72
2022/01/16 07:20:11;;;;;;;;;;;;;;;6.66;100.00;99582.63;5074339;28;19925;-72
2022/01/16 07:22:38;;;;;;;;;;;;;;;6.74;100.00;99562.06;5075662;28;19925;-72
2022/01/16 07:25:05;;;;;;;;;;;;;;;6.60;100.00;99565.53;5107560;28;20328;-73
2022/01/16 07:27:32;;;;;;;;;;;;;;;6.58;100.00;99589.31;5075517;28;19931;-73
2022/01/16 07:30:00;;;;;;;;;;;;;;;6.68;100.00;99613.59;5074555;28;19932;-72
2022/01/16 07:32:27;;;;;;;;;;;;;;;6.57;100.00;99601.59;5057818;28;20253;-72
2022/01/16 07:34:54;;;;;;;;;;;;;;;6.77;100.00;99594.63;5057414;28;19979;-72
2022/01/16 07:37:21;;;;;;;;;;;;;;;6.71;100.00;99598.94;5074031;28;20066;-72
2022/01/16 07:39:50;;;;;;;;;;;;;;;6.70;100.00;99605.66;5073812;28;20001;-72
2022/01/16 07:42:16;;;;;;;;;;;;;;;6.62;100.00;99604.81;5074116;28;19924;-73
2022/01/16 07:44:43;;;;;;;;;;;;;;;6.79;100.00;99584.72;5073865;28;20427;-73
2022/01/16 07:47:10;;;;;;;;;;;;;;;6.76;100.00;99610.50;5074956;28;20348;-72
2022/01/16 07:49:37;;;;;;;;;;;;;;;6.91;100.00;99625.28;5073799;28;20274;-72
2022/01/16 07:52:04;;;;;;;;;;;;;;;6.88;100.00;99617.72;5056804;28;20315;-72
2022/01/16 07:54:31;;;;;;;;;;;;;;;6.78;100.00;99626.78;5069288;28;19983;-72
2022/01/16 07:56:58;;;;;;;;;;;;;;;6.81;100.00;99620.44;5065457;28;19931;-72
2022/01/16 07:59:25;;;;;;;;;;;;;;;6.80;100.00;99632.75;5063276;28;20402;-71
2022/01/16 08:01:53;;;;;;;;;;;;;;;6.73;100.00;99627.91;5066094;28;20472;-72
2022/01/16 08:04:20;;;;;;;;;;;;;;;6.86;100.00;99642.31;5054748;28;20364;-72
2022/01/16 08:06:47;;;;;;;;;;;;;;;6.84;100.00;99641.91;5058556;28;20351;-72
2022/01/16 08:09:14;;;;;;;;;;;;;;;6.78;100.00;99644.25;5062152;28;20398;-72
2022/01/16 08:11:41;;;;;;;;;;;;;;;7.00;100.00;99648.75;5063512;28;20332;-72
2022/01/16 08:14:08;;;;;;;;;;;;;;;6.93;100.00;99639.59;5061459;28;20405;-72
2022/01/16 08:16:35;;;;;;;;;;;;;;;6.78;100.00;99647.03;5064155;28;19924;-72
2022/01/16 08:19:02;;;;;;;;;;;;;;;6.78;100.00;99647.03;5064935;28;20295;-72
2022/01/16 08:21:29;;;;;;;;;;;;;;;6.63;100.00;99650.06;5059788;28;19933;-72
2022/01/16 08:23:57;;;;;;;;;;;;;;;6.79;100.00;99642.25;5065480;28;19986;-72
2022/01/16 08:26:24;;;;;;;;;;;;;;;6.74;100.00;99648.16;5105887;28;20386;-72
2022/01/16 08:28:51;;;;;;;;;;;;;;;6.81;100.00;99656.56;5073341;28;19932;-72
2022/01/16 08:31:18;;;;;;;;;;;;;;;6.76;100.00;99665.22;5061328;28;20387;-72
2022/01/16 08:33:45;;;;;;;;;;;;;;;6.79;100.00;99664.47;5064391;28;19939;-72
2022/01/16 08:36:12;;;;;;;;;;;;;;;6.72;100.00;99668.00;5057380;28;19959;-72
2022/01/16 08:38:39;;;;;;;;;;;;;;;6.71;100.00;99671.16;5067456;28;19929;-72
2022/01/16 08:41:08;;;;;;;;;;;;;;;6.77;100.00;99689.06;5065680;28;19948;-73
2022/01/16 08:43:35;;;;;;;;;;;;;;;6.79;100.00;99684.72;5052750;28;19940;-72
2022/01/16 08:46:02;;;;;;;;;;;;;;;6.95;100.00;99706.69;5060843;28;19932;-72
2022/01/16 08:48:29;;;;;;;;;;;;;;;7.08;100.00;99710.75;5092650;28;20310;-72
2022/01/16 08:50:57;;;;;;;;;;;;;;;6.88;100.00;99717.72;5038046;28;19956;-71
2022/01/16 08:53:24;;;;;;;;;;;;;;;6.97;100.00;99726.53;5042590;28;19924;-72
2022/01/16 08:55:51;;;;;;;;;;;;;;;6.87;100.00;99716.13;5060540;28;19925;-72
2022/01/16 08:58:18;;;;;;;;;;;;;;;6.99;100.00;99724.97;5063207;28;19989;-70
2022/01/16 09:00:47;;;;;;;;;;;;;;;6.85;100.00;99740.69;5061805;28;19970;-72
2022/01/16 09:03:15;;;;;;;;;;;;;;;6.89;100.00;99747.13;5041174;28;19975;-72
2022/01/16 09:05:42;;;;;;;;;;;;;;;6.80;100.00;99739.06;5035763;28;19925;-72
2022/01/16 09:08:09;;;;;;;;;;;;;;;6.93;100.00;99734.03;5019514;28;19925;-72
2022/01/16 09:10:37;;;;;;;;;;;;;;;6.91;100.00;99747.50;5053543;28;19925;-72
2022/01/16 09:13:04;;;;;;;;;;;;;;;6.85;100.00;99743.47;5053581;28;20009;-72
2022/01/16 09:15:32;;;;;;;;;;;;;;;6.77;100.00;99752.94;5053434;28;19925;-72
2022/01/16 09:17:58;;;;;;;;;;;;;;;6.87;100.00;99763.34;5052439;28;19964;-72
2022/01/16 09:20:26;;;;;;;;;;;;;;;6.78;100.00;99762.88;5052250;28;19929;-71
2022/01/16 09:22:53;;;;;;;;;;;;;;;6.73;100.00;99758.47;5051966;28;19925;-71
2022/01/16 09:25:22;;;;;;;;;;;;;;;6.74;100.00;99770.38;5052224;28;19928;-72
2022/01/16 09:27:50;;;;;;;;;;;;;;;6.88;100.00;99771.31;5053579;28;19932;-72
2022/01/16 09:30:17;;;;;;;;;;;;;;;6.81;100.00;99778.78;5035593;28;19974;-71
2022/01/16 09:32:43;;;;;;;;;;;;;;;7.03;100.00;99772.22;5052035;28;19931;-72
2022/01/16 09:35:11;;;;;;;;;;;;;;;6.92;100.00;99774.91;5053088;28;19971;-72
2022/01/16 09:37:39;;;;;;;;;;;;;;;7.10;100.00;99781.44;5053269;28;20022;-72
2022/01/16 09:40:07;;;;;;;;;;;;;;;7.36;100.00;99786.03;5053773;28;19928;-72
2022/01/16 09:42:35;;;;;;;;;;;;;;;7.27;100.00;99788.31;5056144;28;20292;-72
2022/01/16 09:45:04;;;;;;;;;;;;;;;7.57;100.00;99794.56;5055805;28;19924;-72
2022/01/16 09:47:31;;;;;;;;;;;;;;;7.33;100.00;99806.25;5039364;28;20007;-73
2022/01/16 09:49:59;;;;;;;;;;;;;;;7.24;100.00;99809.34;5039392;28;19924;-72
2022/01/16 09:52:26;;;;;;;;;;;;;;;7.29;100.00;99800.69;5056871;28;20011;-72
2022/01/16 09:54:53;;;;;;;;;;;;;;;7.52;100.00;99808.00;5056530;28;20376;-73
2022/01/16 09:57:20;;;;;;;;;;;;;;;7.46;100.00;99806.75;5052718;28;19931;-72
2022/01/16 09:59:47;;;;;;;;;;;;;;;7.53;100.00;99820.72;5055074;28;19971;-73
2022/01/16 10:02:14;;;;;;;;;;;;;;;7.44;100.00;99829.38;5046996;28;19928;-73
2022/01/16 10:04:42;;;;;;;;;;;;;;;7.42;100.00;99831.78;5046700;28;19928;-72
2022/01/16 10:07:11;;;;;;;;;;;;;;;7.38;100.00;99830.16;5053416;28;20016;-72
2022/01/16 10:09:39;;;;;;;;;;;;;;;7.21;100.00;99837.91;5044177;28;19931;-72
2022/01/16 10:12:17;;;;;;;;;;;;;;;7.37;100.00;99840.47;5064020;28;20371;-73
2022/01/16 10:14:49;;;;;;;;;;;;;;;7.26;100.00;99836.78;5064570;28;19932;-72
2022/01/16 10:17:18;;;;;;;;;;;;;;;7.40;100.00;99842.47;5066144;28;20271;-72
2022/01/16 10:19:45;;;;;;;;;;;;;;;7.34;100.00;99846.78;5061461;28;19951;-73
2022/01/16 10:22:13;;;;;;;;;;;;;;;7.39;100.00;99847.22;5060550;28;19933;-72
2022/01/16 10:24:41;;;;;;;;;;;;;;;7.47;100.00;99848.09;5055041;28;19929;-73
2022/01/16 10:27:08;;;;;;;;;;;;;;;7.54;100.00;99850.13;5087626;28;20059;-73
2022/01/16 10:29:39;;;;;;;;;;;;;;;7.54;100.00;99856.50;5060638;28;19931;-73
2022/01/16 10:32:27;;;;;;;;;;;;;;;7.42;100.00;99865.13;5036461;28;20031;-73
2022/01/16 10:35:06;;;;;;;;;;;;;;;7.79;100.00;99857.50;5094673;28;20383;-73
2022/01/16 10:37:33;;;;;;;;;;;;;;;7.80;100.00;99869.44;5064952;28;19932;-73
2022/01/16 10:40:01;;;;;;;;;;;;;;;7.83;100.00;99863.88;5064278;28;19928;-72
2022/01/16 10:42:29;;;;;;;;;;;;;;;8.13;100.00;99872.84;5092443;28;19970;-73
2022/01/16 10:44:57;;;;;;;;;;;;;;;8.32;100.00;99875.38;5067339;28;19959;-73
2022/01/16 10:47:33;;;;;;;;;;;;;;;8.38;100.00;99884.97;5067943;28;19924;-73
2022/01/16 10:50:03;;;;;;;;;;;;;;;8.32;100.00;99886.50;5056244;28;19971;-73
2022/01/16 10:52:31;;;;;;;;;;;;;;;8.45;100.00;99885.00;5065681;28;20419;-72
2022/01/16 10:55:08;;;;;;;;;;;;;;;8.41;100.00;99878.59;5065280;28;20007;-74
2022/01/16 10:57:36;;;;;;;;;;;;;;;8.40;100.00;99877.03;5065181;28;19932;-72
2022/01/16 11:00:06;;;;;;;;;;;;;;;8.69;100.00;99872.38;5064229;28;19931;-72
2022/01/16 11:02:33;;;;;;;;;;;;;;;8.51;100.00;99879.88;5066978;28;19959;-72
2022/01/16 11:05:07;;;;;;;;;;;;;;;8.76;100.00;99878.78;5066120;28;20011;-72
2022/01/16 11:07:34;;;;;;;;;;;;;;;8.53;100.00;99872.69;5066116;28;19924;-73
2022/01/16 11:10:17;;;;;;;;;;;;;;;8.37;100.00;99879.78;5061558;28;19970;-72
2022/01/16 11:12:46;;;;;;;;;;;;;;;8.15;100.00;99889.94;5062452;28;19925;-72
2022/01/16 11:15:13;;;;;;;;;;;;;;;8.03;100.00;99895.03;5064372;28;20020;-72
2022/01/16 11:17:41;;;;;;;;;;;;;;;8.25;100.00;99919.91;5045182;28;19946;-73
2022/01/16 11:20:08;;;;;;;;;;;;;;;8.18;100.00;99913.44;5065870;28;20019;-72
2022/01/16 11:22:55;;;;;;;;;;;;;;;8.28;100.00;99929.44;5064049;28;19928;-72
2022/01/16 11:25:31;;;;;;;;;;;;;;;8.48;100.00;99933.56;5063113;28;19951;-72
2022/01/16 11:28:00;;;;;;;;;;;;;;;8.49;100.00;99941.53;5065770;28;19994;-72
2022/01/16 11:30:28;;;;;;;;;;;;;;;8.40;100.00;99918.81;5023677;28;19928;-73
2022/01/16 11:32:56;;;;;;;;;;;;;;;8.30;100.00;99927.88;5057299;28;20016;-72
2022/01/16 11:35:25;;;;;;;;;;;;;;;8.30;100.00;99941.78;5065199;28;19952;-72
2022/01/16 11:37:52;;;;;;;;;;;;;;;8.22;100.00;99936.53;5046985;28;20465;-72
2022/01/16 11:40:27;;;;;;;;;;;;;;;8.26;100.00;99937.38;5064096;28;19925;-72
2022/01/16 11:43:13;;;;;;;;;;;;;;;8.50;100.00;99948.69;5066121;28;19924;-72
2022/01/16 11:45:46;;;;;;;;;;;;;;;8.48;100.00;99962.19;5073274;28;19925;-72
2022/01/16 11:48:17;;;;;;;;;;;;;;;8.54;100.00;99957.84;5069844;28;20375;-73
2022/01/16 11:50:44;;;;;;;;;;;;;;;8.82;100.00;99957.22;5065853;28;19925;-73
2022/01/16 11:53:11;;;;;;;;;;;;;;;8.40;100.00;99949.44;5083741;28;20437;-73
2022/01/16 11:55:40;;;;;;;;;;;;;;;8.92;100.00;99967.66;5064599;28;19925;-72
2022/01/16 11:58:07;;;;;;;;;;;;;;;8.82;100.00;99966.41;5062929;28;19931;-74
2022/01/16 12:00:42;;;;;;;;;;;;;;;8.78;100.00;99973.91;5062915;28;20007;-73
2022/01/16 12:03:32;;;;;;;;;;;;;;;8.53;100.00;99980.53;5063574;28;19931;-73
2022/01/16 12:06:18;;;;;;;;;;;;;;;8.93;100.00;99977.59;5063074;28;19931;-73
2022/01/16 12:08:46;;;;;;;;;;;;;;;8.92;100.00;99987.94;5060032;28;19968;-74
2022/01/16 12:11:39;;;;;;;;;;;;;;;8.95;100.00;99992.72;5061491;28;19925;-73
2022/01/16 12:14:07;;;;;;;;;;;;;;;8.56;100.00;99994.50;5037187;28;20399;-73
2022/01/16 12:16:42;;;;;;;;;;;;;;;8.60;100.00;100003.66;5056751;28;19924;-75
2022/01/16 12:19:28;;;;;;;;;;;;;;;8.61;100.00;100005.28;5073256;28;20317;-73
2022/01/16 12:21:56;;;;;;;;;;;;;;;8.53;100.00;100002.81;5073196;28;19962;-73
2022/01/16 12:24:32;;;;;;;;;;;;;;;8.35;100.00;100018.59;5073251;28;19970;-72
2022/01/16 12:27:19;;;;;;;;;;;;;;;8.58;100.00;100022.78;5074294;28;19925;-73
2022/01/16 12:30:04;;;;;;;;;;;;;;;8.65;100.00;100033.94;5073914;28;19982;-73
2022/01/16 12:32:50;;;;;;;;;;;;;;;8.53;100.00;100020.34;5074442;28;19936;-73
2022/01/16 12:35:38;;;;;;;;;;;;;;;8.82;100.00;100027.72;5060075;28;20265;-73
2022/01/16 12:38:06;;;;;;;;;;;;;;;8.62;100.00;100033.91;5048266;28;20264;-73
2022/01/16 12:40:33;;;;;;;;;;;;;;;8.50;100.00;100029.47;5063589;28;19952;-73
2022/01/16 12:43:04;;;;;;;;;;;;;;;8.35;100.00;100024.97;5062182;28;20352;-73
2022/01/16 12:45:37;;;;;;;;;;;;;;;8.31;100.00;100026.13;5053977;28;19925;-73
2022/01/16 12:48:04;;;;;;;;;;;;;;;8.60;100.00;100033.53;5036297;28;20014;-73
2022/01/16 12:50:32;;;;;;;;;;;;;;;8.58;100.00;100022.78;5054080;28;19931;-74
2022/01/16 12:52:59;;;;;;;;;;;;;;;8.57;100.00;100023.94;5053831;28;19940;-72
2022/01/16 12:55:29;;;;;;;;;;;;;;;8.91;100.00;100042.09;5053641;28;19931;-72
2022/01/16 12:58:15;;;;;;;;;;;;;;;9.03;100.00;100038.16;5066559;28;20012;-74
2022/01/16 13:00:58;;;;;;;;;;;;;;;9.00;100.00;100042.53;5060044;28;19929;-73
2022/01/16 13:03:25;;;;;;;;;;;;;;;9.02;100.00;100042.97;5062134;28;19932;-73
2022/01/16 13:06:12;;;;;;;;;;;;;;;8.64;100.00;100037.13;5064442;28;19929;-73
2022/01/16 13:08:51;;;;;;;;;;;;;;;8.37;100.00;100046.88;5064203;28;19928;-73
2022/01/16 13:11:18;;;;;;;;;;;;;;;8.84;100.00;100044.84;5032654;28;20327;-73
2022/01/16 13:13:46;;;;;;;;;;;;;;;8.74;100.00;100050.31;5033662;28;20351;-73
2022/01/16 13:16:27;;;;;;;;;;;;;;;8.20;100.00;100059.44;5048488;28;19929;-73
2022/01/16 13:19:00;;;;;;;;;;;;;;;8.18;100.00;100063.78;5033899;28;19968;-73
2022/01/16 13:21:33;;;;;;;;;;;;;;;7.95;100.00;100044.44;5033693;28;19925;-73
2022/01/16 13:24:01;;;;;;;;;;;;;;;7.89;100.00;100045.19;5032781;28;20004;-73
2022/01/16 13:26:29;;;;;;;;;;;;;;;7.99;100.00;100038.94;5076104;28;19925;-72
2022/01/16 13:29:05;;;;;;;;;;;;;;;8.20;100.00;100042.72;5061023;28;20331;-73
2022/01/16 13:31:36;;;;;;;;;;;;;;;8.35;100.00;100040.88;5062139;28;19925;-73
2022/01/16 13:34:06;;;;;;;;;;;;;;;8.75;100.00;100044.38;5058265;28;19955;-73
2022/01/16 13:36:33;;;;;;;;;;;;;;;8.69;100.00;100043.13;5053720;28;20034;-73
2022/01/16 13:39:00;;;;;;;;;;;;;;;8.65;100.00;100050.66;5052464;28;19979;-72
2022/01/16 13:41:27;;;;;;;;;;;;;;;8.38;100.00;100035.34;5053389;28;19947;-72